AAL1685 CYHZ-KORD
Flight info
| Callsign | AAL1685 |
|---|---|
| Flight time | N/A |
| Altitude | 34000 |
| Route | SENVI DCT VIGMA DCT ALLEX Q822 PUPPY/N0458F360 Q822 FNT WYNDE3 |
| Aircraft | B738/M-SDE2E3FGHIRWXY/LB1 |
Departure
| Time | 2026-04-28 01:12 |
|---|---|
| Airport | Halifax / Stanfield International Airport (CYHZ) |
Arrival
| Time | N/A |
|---|---|
| Airport | Chicago O'Hare International Airport (KORD) |
| Time | Latitude | Longitude | Altitude | Speed | Heading |
|---|---|---|---|---|---|
| 2026-04-28 00:36 | 44.88408 | -63.51431 | 454 ft | 0 kts | 306° |
| 2026-04-28 00:55 | 44.88405 | -63.51425 | 454 ft | 5 kts | 304° |
| 2026-04-28 00:55 | 44.88365 | -63.51347 | 453 ft | 7 kts | 309° |
| 2026-04-28 00:55 | 44.88357 | -63.51334 | 450 ft | 0 kts | 321° |
| 2026-04-28 00:55 | 44.88334 | -63.51320 | 452 ft | 6 kts | 8° |
| 2026-04-28 00:56 | 44.88316 | -63.51327 | 454 ft | 0 kts | 36° |
| 2026-04-28 00:57 | 44.88320 | -63.51323 | 454 ft | 2 kts | 36° |
| 2026-04-28 00:58 | 44.88352 | -63.51290 | 451 ft | 9 kts | 37° |
| 2026-04-28 00:58 | 44.88417 | -63.51218 | 453 ft | 15 kts | 31° |
| 2026-04-28 00:58 | 44.88528 | -63.51221 | 453 ft | 18 kts | 349° |
| 2026-04-28 00:58 | 44.88661 | -63.51254 | 452 ft | 21 kts | 349° |
| 2026-04-28 00:59 | 44.88816 | -63.51291 | 450 ft | 24 kts | 350° |
| 2026-04-28 00:59 | 44.88961 | -63.51314 | 448 ft | 12 kts | 10° |
| 2026-04-28 00:59 | 44.89036 | -63.51359 | 448 ft | 12 kts | 307° |
| 2026-04-28 00:59 | 44.89073 | -63.51465 | 447 ft | 12 kts | 295° |
| 2026-04-28 01:00 | 44.89109 | -63.51569 | 435 ft | 12 kts | 298° |
| 2026-04-28 01:00 | 44.89151 | -63.51666 | 441 ft | 11 kts | 308° |
| 2026-04-28 01:00 | 44.89204 | -63.51746 | 435 ft | 11 kts | 314° |
| 2026-04-28 01:00 | 44.89245 | -63.51807 | 441 ft | 0 kts | 350° |
| 2026-04-28 01:01 | 44.89248 | -63.51808 | 441 ft | 2 kts | 351° |
| 2026-04-28 01:01 | 44.89262 | -63.51809 | 431 ft | 3 kts | 0° |
| 2026-04-28 01:02 | 44.89282 | -63.51802 | 440 ft | 3 kts | 19° |
| 2026-04-28 01:02 | 44.89294 | -63.51794 | 444 ft | 0 kts | 26° |
| 2026-04-28 01:06 | 44.89324 | -63.51768 | 442 ft | 10 kts | 36° |
| 2026-04-28 01:07 | 44.89339 | -63.51682 | 440 ft | 11 kts | 114° |
| 2026-04-28 01:07 | 44.89334 | -63.51668 | 432 ft | 0 kts | 121° |
| 2026-04-28 01:11 | 44.89285 | -63.51567 | 446 ft | 46 kts | 125° |
| 2026-04-28 01:11 | 44.88942 | -63.50882 | 451 ft | 122 kts | 125° |
| 2026-04-28 01:11 | 44.88327 | -63.49696 | 557 ft | 166 kts | 126° |
| 2026-04-28 01:12 | 44.87665 | -63.48277 | 1106 ft | 190 kts | 126° |
| 2026-04-28 01:12 | 44.86841 | -63.46679 | 1614 ft | 211 kts | 127° |
| 2026-04-28 01:12 | 44.85935 | -63.44938 | 2196 ft | 228 kts | 127° |
| 2026-04-28 01:12 | 44.84968 | -63.43086 | 2863 ft | 241 kts | 126° |
| 2026-04-28 01:13 | 44.83824 | -63.41294 | 3526 ft | 254 kts | 145° |
| 2026-04-28 01:13 | 44.80422 | -63.41115 | 3451 ft | 253 kts | 214° |
| 2026-04-28 01:13 | 44.79314 | -63.42976 | 3458 ft | 248 kts | 240° |
| 2026-04-28 01:14 | 44.78617 | -63.45195 | 3488 ft | 252 kts | 250° |
| 2026-04-28 01:14 | 44.78080 | -63.47622 | 3786 ft | 267 kts | 253° |
| 2026-04-28 01:14 | 44.77564 | -63.50132 | 4529 ft | 267 kts | 253° |
| 2026-04-28 01:14 | 44.77044 | -63.52654 | 4920 ft | 269 kts | 253° |
| 2026-04-28 01:15 | 44.76515 | -63.55182 | 4993 ft | 274 kts | 253° |
| 2026-04-28 01:15 | 44.75970 | -63.57752 | 5148 ft | 269 kts | 253° |
| 2026-04-28 01:15 | 44.75432 | -63.60258 | 5492 ft | 268 kts | 253° |
| 2026-04-28 01:15 | 44.74882 | -63.62800 | 6089 ft | 274 kts | 253° |
| 2026-04-28 01:16 | 44.74321 | -63.65375 | 6836 ft | 276 kts | 254° |
| 2026-04-28 01:16 | 44.73762 | -63.67934 | 7530 ft | 279 kts | 254° |
| 2026-04-28 01:16 | 44.73180 | -63.70588 | 8221 ft | 282 kts | 254° |
| 2026-04-28 01:16 | 44.72606 | -63.73201 | 8895 ft | 285 kts | 254° |
| 2026-04-28 01:17 | 44.72017 | -63.75878 | 9578 ft | 288 kts | 254° |
| 2026-04-28 01:17 | 44.71421 | -63.78580 | 10257 ft | 292 kts | 254° |
| 2026-04-28 01:17 | 44.70799 | -63.81396 | 10498 ft | 311 kts | 254° |
| 2026-04-28 01:17 | 44.70135 | -63.84400 | 10672 ft | 332 kts | 254° |
| 2026-04-28 01:18 | 44.69430 | -63.87583 | 10823 ft | 351 kts | 253° |
| 2026-04-28 01:18 | 44.68683 | -63.90952 | 10960 ft | 370 kts | 253° |
| 2026-04-28 01:18 | 44.67899 | -63.94475 | 11273 ft | 382 kts | 253° |
| 2026-04-28 01:18 | 44.67101 | -63.98054 | 11841 ft | 385 kts | 253° |
| 2026-04-28 01:19 | 44.66237 | -64.01621 | 12489 ft | 387 kts | 249° |
| 2026-04-28 01:19 | 44.65214 | -64.05130 | 13106 ft | 390 kts | 248° |
| 2026-04-28 01:19 | 44.64138 | -64.08645 | 13713 ft | 393 kts | 247° |
| 2026-04-28 01:19 | 44.63055 | -64.12130 | 14288 ft | 395 kts | 247° |
| 2026-04-28 01:20 | 44.61952 | -64.15679 | 14837 ft | 397 kts | 247° |
| 2026-04-28 01:20 | 44.60851 | -64.19241 | 15416 ft | 398 kts | 247° |
| 2026-04-28 01:20 | 44.59750 | -64.22814 | 15981 ft | 400 kts | 247° |
| 2026-04-28 01:20 | 44.58648 | -64.26406 | 16516 ft | 402 kts | 247° |
| 2026-04-28 01:21 | 44.57541 | -64.30019 | 17022 ft | 404 kts | 247° |
| 2026-04-28 01:21 | 44.56426 | -64.33659 | 17522 ft | 407 kts | 246° |
| 2026-04-28 01:21 | 44.55303 | -64.37325 | 18022 ft | 410 kts | 246° |
| 2026-04-28 01:21 | 44.54173 | -64.41010 | 18510 ft | 412 kts | 246° |
| 2026-04-28 01:22 | 44.53037 | -64.44709 | 18952 ft | 415 kts | 246° |
| 2026-04-28 01:22 | 44.51891 | -64.48436 | 19381 ft | 417 kts | 246° |
| 2026-04-28 01:22 | 44.50739 | -64.52175 | 19814 ft | 419 kts | 246° |
| 2026-04-28 01:22 | 44.49580 | -64.55931 | 20244 ft | 421 kts | 246° |
| 2026-04-28 01:23 | 44.48429 | -64.59658 | 20647 ft | 423 kts | 246° |
| 2026-04-28 01:23 | 44.47258 | -64.63444 | 21046 ft | 425 kts | 246° |
| 2026-04-28 01:23 | 44.46078 | -64.67253 | 21429 ft | 428 kts | 246° |
| 2026-04-28 01:23 | 44.44889 | -64.71083 | 21808 ft | 430 kts | 246° |
| 2026-04-28 01:24 | 44.43694 | -64.74929 | 22190 ft | 432 kts | 246° |
| 2026-04-28 01:24 | 44.42491 | -64.78795 | 22553 ft | 434 kts | 246° |
| 2026-04-28 01:24 | 44.41281 | -64.82677 | 22920 ft | 437 kts | 246° |
| 2026-04-28 01:24 | 44.40059 | -64.86592 | 23264 ft | 439 kts | 246° |
| 2026-04-28 01:25 | 44.38832 | -64.90516 | 23616 ft | 441 kts | 246° |
| 2026-04-28 01:25 | 44.37599 | -64.94456 | 23943 ft | 443 kts | 246° |
| 2026-04-28 01:25 | 44.36360 | -64.98408 | 24238 ft | 445 kts | 246° |
| 2026-04-28 01:25 | 44.35113 | -65.02377 | 24523 ft | 447 kts | 246° |
| 2026-04-28 01:26 | 44.33862 | -65.06355 | 24803 ft | 449 kts | 246° |
| 2026-04-28 01:26 | 44.32600 | -65.10359 | 25065 ft | 451 kts | 246° |
| 2026-04-28 01:26 | 44.31332 | -65.14378 | 25325 ft | 452 kts | 246° |
| 2026-04-28 01:26 | 44.30062 | -65.18398 | 25585 ft | 454 kts | 246° |
| 2026-04-28 01:27 | 44.28782 | -65.22443 | 25831 ft | 456 kts | 246° |
| 2026-04-28 01:27 | 44.27497 | -65.26497 | 26084 ft | 458 kts | 246° |
| 2026-04-28 01:27 | 44.26224 | -65.30508 | 26318 ft | 459 kts | 246° |
| 2026-04-28 01:27 | 44.24925 | -65.34593 | 26542 ft | 461 kts | 246° |
| 2026-04-28 01:28 | 44.23619 | -65.38693 | 26823 ft | 462 kts | 246° |
| 2026-04-28 01:28 | 44.22317 | -65.42776 | 27191 ft | 460 kts | 246° |
| 2026-04-28 01:28 | 44.21018 | -65.46842 | 27571 ft | 458 kts | 246° |
| 2026-04-28 01:28 | 44.19721 | -65.50897 | 27911 ft | 458 kts | 246° |
| 2026-04-28 01:29 | 44.18424 | -65.54945 | 28214 ft | 458 kts | 246° |
| 2026-04-28 01:29 | 44.17127 | -65.58986 | 28548 ft | 457 kts | 246° |
| 2026-04-28 01:29 | 44.15828 | -65.63028 | 28890 ft | 456 kts | 246° |
| 2026-04-28 01:29 | 44.14531 | -65.67056 | 29222 ft | 455 kts | 246° |
| 2026-04-28 01:30 | 44.13233 | -65.71081 | 29529 ft | 455 kts | 246° |
| 2026-04-28 01:30 | 44.11935 | -65.75101 | 29840 ft | 455 kts | 246° |
| 2026-04-28 01:30 | 44.10639 | -65.79110 | 30164 ft | 454 kts | 246° |
| 2026-04-28 01:30 | 44.09342 | -65.83114 | 30476 ft | 453 kts | 246° |
| 2026-04-28 01:31 | 44.08045 | -65.87111 | 30719 ft | 453 kts | 246° |
| 2026-04-28 01:31 | 44.06750 | -65.91097 | 30960 ft | 453 kts | 246° |
| 2026-04-28 01:31 | 44.05449 | -65.95096 | 31209 ft | 453 kts | 246° |
| 2026-04-28 01:31 | 44.04167 | -65.99030 | 31452 ft | 452 kts | 246° |
| 2026-04-28 01:32 | 44.02867 | -66.03016 | 31680 ft | 452 kts | 246° |
| 2026-04-28 01:32 | 44.01568 | -66.06991 | 31911 ft | 452 kts | 246° |
| 2026-04-28 01:32 | 44.00266 | -66.10969 | 32146 ft | 452 kts | 246° |
| 2026-04-28 01:32 | 43.98965 | -66.14936 | 32382 ft | 451 kts | 246° |
| 2026-04-28 01:33 | 43.98103 | -66.17565 | 32525 ft | 451 kts | 246° |
| 2026-04-28 01:33 | 43.96361 | -66.22864 | 32820 ft | 451 kts | 246° |
| 2026-04-28 01:33 | 43.95497 | -66.25489 | 32973 ft | 451 kts | 246° |
| 2026-04-28 01:33 | 43.94195 | -66.29440 | 33198 ft | 450 kts | 246° |
| 2026-04-28 01:34 | 43.92891 | -66.33390 | 33408 ft | 450 kts | 246° |
| 2026-04-28 01:34 | 43.91587 | -66.37335 | 33604 ft | 450 kts | 246° |
| 2026-04-28 01:34 | 43.90282 | -66.41277 | 33824 ft | 449 kts | 246° |
| 2026-04-28 01:34 | 43.88979 | -66.45208 | 34039 ft | 449 kts | 246° |
| 2026-04-28 01:35 | 43.87675 | -66.49136 | 34228 ft | 449 kts | 246° |
| 2026-04-28 01:35 | 43.86366 | -66.53071 | 34346 ft | 450 kts | 246° |
| 2026-04-28 01:35 | 43.83734 | -66.60973 | 34341 ft | 450 kts | 246° |
| 2026-04-28 01:36 | 43.81112 | -66.68820 | 34340 ft | 447 kts | 246° |
| 2026-04-28 01:36 | 43.78501 | -66.76614 | 34346 ft | 444 kts | 246° |
| 2026-04-28 01:37 | 43.76659 | -66.84645 | 34358 ft | 437 kts | 272° |
| 2026-04-28 01:37 | 43.76837 | -66.93078 | 34359 ft | 442 kts | 270° |
| 2026-04-28 01:38 | 43.76719 | -67.01668 | 34358 ft | 449 kts | 270° |
| 2026-04-28 01:38 | 43.76603 | -67.10286 | 34354 ft | 452 kts | 270° |
| 2026-04-28 01:39 | 43.76535 | -67.18965 | 34347 ft | 449 kts | 270° |
| 2026-04-28 01:39 | 43.76485 | -67.27548 | 34343 ft | 444 kts | 270° |
| 2026-04-28 01:40 | 43.76436 | -67.36077 | 34356 ft | 442 kts | 270° |
| 2026-04-28 01:40 | 43.76380 | -67.44567 | 34357 ft | 441 kts | 270° |
| 2026-04-28 01:41 | 43.76316 | -67.53067 | 34352 ft | 442 kts | 270° |
| 2026-04-28 01:41 | 43.76245 | -67.61579 | 34358 ft | 443 kts | 270° |
| 2026-04-28 01:42 | 43.76168 | -67.70117 | 34358 ft | 445 kts | 270° |
| 2026-04-28 01:42 | 43.76085 | -67.78633 | 34356 ft | 446 kts | 270° |
| 2026-04-28 01:43 | 43.75994 | -67.87231 | 34356 ft | 448 kts | 270° |
| 2026-04-28 01:43 | 43.75896 | -67.95881 | 34353 ft | 450 kts | 270° |
| 2026-04-28 01:44 | 43.75792 | -68.04550 | 34354 ft | 451 kts | 270° |
| 2026-04-28 01:44 | 43.75681 | -68.13185 | 34353 ft | 452 kts | 270° |
| 2026-04-28 01:45 | 43.75563 | -68.21878 | 34350 ft | 452 kts | 270° |
| 2026-04-28 01:45 | 43.75438 | -68.30563 | 34353 ft | 451 kts | 270° |
| 2026-04-28 01:46 | 43.75307 | -68.39240 | 34349 ft | 451 kts | 271° |